Time;durP1;ratioP1;P1;durP2;ratioP2;P2;SDS_P1;SDS_P2;PMS_P1;PMS_P2;Temp;Humidity;BMP_temperature;BMP_pressure;BME280_temperature;BME280_humidity;BME280_pressure;Samples;Min_cycle;Max_cycle;Signal;HPM_P1;HPM_P2
2022/07/05 00:01:30;;;;;;;3.63;2.50;;;19.90;68.30;;;;;;7385108;19;20489;-81
2022/07/05 00:04:02;;;;;;;2.47;2.20;;;20.00;68.70;;;;;;7392237;19;20405;-81
2022/07/05 00:06:31;;;;;;;2.00;1.73;;;20.30;67.60;;;;;;7390786;19;20404;-81
2022/07/05 00:09:06;;;;;;;1.87;1.77;;;20.40;66.50;;;;;;7390349;19;20442;-80
2022/07/05 00:11:38;;;;;;;2.47;1.97;;;20.70;65.20;;;;;;7387964;19;20392;-82
2022/07/05 00:14:09;;;;;;;2.87;2.10;;;20.70;65.20;;;;;;7391122;19;20397;-81
2022/07/05 00:16:39;;;;;;;2.00;1.80;;;20.30;66.70;;;;;;7386734;19;20416;-82
2022/07/05 00:19:10;;;;;;;2.57;2.33;;;20.10;68.90;;;;;;7386965;19;20400;-81
2022/07/05 00:21:40;;;;;;;3.70;2.00;;;19.90;70.70;;;;;;7379267;19;20450;-82
2022/07/05 00:24:10;;;;;;;3.97;2.63;;;20.00;70.10;;;;;;7386262;19;20436;-81
2022/07/05 00:26:44;;;;;;;4.10;2.70;;;20.10;70.40;;;;;;7387859;19;20408;-81
2022/07/05 00:29:14;;;;;;;3.30;2.80;;;20.10;71.30;;;;;;7388276;19;20412;-81
2022/07/05 00:31:44;;;;;;;2.63;2.40;;;20.10;70.60;;;;;;7384508;19;20477;-80
2022/07/05 00:34:16;;;;;;;4.60;2.50;;;20.10;71.10;;;;;;7383877;19;20407;-80
2022/07/05 00:36:46;;;;;;;3.67;2.40;;;20.20;71.10;;;;;;7382371;19;21538;-80
2022/07/05 00:39:17;;;;;;;4.60;2.60;;;19.70;73.10;;;;;;7382246;19;20396;-83
2022/07/05 00:41:49;;;;;;;6.07;2.80;;;19.40;74.80;;;;;;7385381;19;21200;-80
2022/07/05 00:44:32;;;;;;;3.00;2.77;;;19.30;76.90;;;;;;7382201;19;21065;-81
2022/07/05 00:47:05;;;;;;;3.87;2.30;;;19.10;77.40;;;;;;7382064;19;20405;-81
2022/07/05 00:49:36;;;;;;;2.60;2.40;;;18.90;79.80;;;;;;7381971;19;20438;-80
2022/07/05 00:52:08;;;;;;;4.53;2.30;;;18.90;79.20;;;;;;7382499;19;21059;-80
2022/07/05 00:54:41;;;;;;;2.53;2.27;;;19.10;77.50;;;;;;7384965;19;20431;-81
2022/07/05 00:57:13;;;;;;;2.73;2.37;;;18.90;78.50;;;;;;7383117;19;20420;-81
2022/07/05 00:59:43;;;;;;;3.20;2.07;;;18.80;78.70;;;;;;7381532;19;20535;-82
2022/07/05 01:02:13;;;;;;;4.60;1.93;;;18.90;78.20;;;;;;7382148;19;20491;-81
2022/07/05 01:04:45;;;;;;;2.30;2.03;;;19.00;78.30;;;;;;7381993;19;21371;-81
2022/07/05 01:07:18;;;;;;;3.60;2.50;;;19.00;76.60;;;;;;7383822;19;20400;-81
2022/07/05 01:09:48;;;;;;;3.83;2.13;;;18.90;78.30;;;;;;7384051;19;20388;-81
2022/07/05 01:12:23;;;;;;;2.50;2.30;;;19.10;76.60;;;;;;7384529;19;20404;-81
2022/07/05 01:14:54;;;;;;;2.00;1.87;;;19.40;75.10;;;;;;7379224;19;20403;-81
2022/07/05 01:17:25;;;;;;;3.07;2.80;;;19.40;74.40;;;;;;7383212;19;20867;-81
2022/07/05 01:19:57;;;;;;;2.70;1.87;;;19.30;75.00;;;;;;7382572;19;20412;-81
2022/07/05 01:22:29;;;;;;;5.30;1.70;;;19.60;74.10;;;;;;7355655;19;20407;-81
2022/07/05 01:25:01;;;;;;;1.97;1.63;;;19.50;72.90;;;;;;7358623;19;20899;-80
2022/07/05 01:27:33;;;;;;;2.27;2.07;;;19.40;73.80;;;;;;7367021;19;20407;-80
2022/07/05 01:30:03;;;;;;;3.60;2.30;;;19.20;74.70;;;;;;7364100;19;20403;-80
2022/07/05 01:32:33;;;;;;;2.03;1.83;;;19.30;75.60;;;;;;7363149;19;20423;-80
2022/07/05 01:35:02;;;;;;;2.77;1.97;;;19.40;74.30;;;;;;7399426;19;21161;-80
2022/07/05 01:37:34;;;;;;;2.17;1.87;;;19.20;74.90;;;;;;7405020;19;20503;-81
2022/07/05 01:40:09;;;;;;;4.50;2.07;;;19.20;75.20;;;;;;7404968;19;20432;-82
2022/07/05 01:42:38;;;;;;;2.73;1.93;;;19.10;76.10;;;;;;7410218;19;20419;-81
2022/07/05 01:45:11;;;;;;;3.00;2.00;;;18.80;77.10;;;;;;7403942;19;20433;-82
2022/07/05 01:47:48;;;;;;;1.90;1.80;;;19.10;75.90;;;;;;7410024;19;20483;-82
2022/07/05 01:50:23;;;;;;;1.90;1.80;;;19.20;74.10;;;;;;7410009;19;20419;-82
2022/07/05 01:52:54;;;;;;;3.90;1.60;;;19.10;74.30;;;;;;7418481;19;20404;-82
2022/07/05 01:55:26;;;;;;;3.50;2.00;;;19.00;74.60;;;;;;7411160;19;20405;-81
2022/07/05 01:57:56;;;;;;;3.40;1.53;;;19.00;75.30;;;;;;7403558;19;20480;-79
2022/07/05 02:00:26;;;;;;;2.80;1.60;;;19.10;74.80;;;;;;7421361;19;20418;-80
2022/07/05 02:02:56;;;;;;;2.43;1.67;;;19.20;73.50;;;;;;7426523;19;21039;-81
2022/07/05 02:05:26;;;;;;;2.47;2.27;;;19.00;73.60;;;;;;7424542;19;20436;-81
2022/07/05 02:07:55;;;;;;;2.30;2.03;;;18.70;76.70;;;;;;7426094;19;20416;-81
2022/07/05 02:10:28;;;;;;;4.50;1.87;;;18.60;78.40;;;;;;7399285;19;20382;-81
2022/07/05 02:12:57;;;;;;;2.23;1.57;;;18.80;76.70;;;;;;7387475;19;20416;-81
2022/07/05 02:15:27;;;;;;;2.53;2.23;;;18.90;75.70;;;;;;7380827;19;20404;-82
2022/07/05 02:17:56;;;;;;;4.80;2.17;;;18.80;76.60;;;;;;7380142;19;20408;-82
2022/07/05 02:20:26;;;;;;;2.03;1.90;;;18.50;79.40;;;;;;7385067;19;20415;-82
2022/07/05 02:22:56;;;;;;;2.60;1.80;;;18.30;80.70;;;;;;7390178;19;20416;-80
2022/07/05 02:25:28;;;;;;;2.50;2.00;;;18.50;78.80;;;;;;7383940;19;20372;-83
2022/07/05 02:28:00;;;;;;;2.43;2.13;;;18.50;78.00;;;;;;7379819;19;20408;-82
2022/07/05 02:30:30;;;;;;;2.43;2.07;;;18.50;78.60;;;;;;7378063;19;20425;-80
2022/07/05 02:32:59;;;;;;;2.53;1.83;;;18.20;78.80;;;;;;7377993;19;20408;-81
2022/07/05 02:35:30;;;;;;;3.20;2.10;;;18.50;78.90;;;;;;7374409;19;20953;-80
2022/07/05 02:38:00;;;;;;;1.90;1.73;;;18.40;78.80;;;;;;7377370;19;20388;-82
2022/07/05 02:40:32;;;;;;;2.00;1.57;;;18.30;79.20;;;;;;7381258;19;20388;-80
2022/07/05 02:43:03;;;;;;;4.73;2.10;;;18.30;79.30;;;;;;7374017;19;20551;-80
2022/07/05 02:45:32;;;;;;;2.57;1.80;;;18.30;79.90;;;;;;7376624;19;20484;-80
2022/07/05 02:48:06;;;;;;;2.63;1.73;;;18.40;79.70;;;;;;7376896;19;20971;-80
2022/07/05 02:50:36;;;;;;;2.30;2.10;;;18.40;79.60;;;;;;7378620;19;20411;-80
2022/07/05 02:53:08;;;;;;;4.80;2.23;;;18.40;81.00;;;;;;7378703;19;20416;-80
2022/07/05 02:55:40;;;;;;;2.27;2.03;;;18.10;83.10;;;;;;7372801;19;20504;-80
2022/07/05 02:58:10;;;;;;;3.80;2.00;;;18.00;84.10;;;;;;7366876;19;20424;-80
2022/07/05 03:00:39;;;;;;;3.70;2.67;;;18.10;84.60;;;;;;7383276;19;20420;-79
2022/07/05 03:03:10;;;;;;;3.40;3.10;;;18.00;86.20;;;;;;7385402;19;20416;-80
2022/07/05 03:05:43;;;;;;;4.73;3.00;;;18.00;87.60;;;;;;7384580;19;20447;-81
2022/07/05 03:08:13;;;;;;;2.43;2.23;;;17.80;88.50;;;;;;7387438;19;20404;-80
2022/07/05 03:10:46;;;;;;;3.70;3.03;;;17.60;90.20;;;;;;7386489;19;20464;-80
2022/07/05 03:13:18;;;;;;;5.10;2.83;;;17.40;91.30;;;;;;7387628;19;20400;-80
2022/07/05 03:15:48;;;;;;;2.80;2.50;;;17.70;90.90;;;;;;7383671;19;20415;-80
2022/07/05 03:18:22;;;;;;;2.80;2.60;;;17.90;90.20;;;;;;7385569;19;20367;-80
2022/07/05 03:20:51;;;;;;;2.23;2.03;;;17.70;90.40;;;;;;7382945;19;20428;-79
2022/07/05 03:23:22;;;;;;;3.63;3.07;;;17.70;90.60;;;;;;7356877;19;20412;-80
2022/07/05 03:25:59;;;;;;;5.60;2.53;;;17.70;91.00;;;;;;7375399;19;20414;-80
2022/07/05 03:28:31;;;;;;;3.63;2.80;;;17.70;91.10;;;;;;7370930;19;20404;-79
2022/07/05 03:31:03;;;;;;;3.63;2.80;;;17.80;90.70;;;;;;7367148;19;20845;-81
2022/07/05 03:33:39;;;;;;;2.57;2.30;;;17.90;90.40;;;;;;7366051;19;20431;-80
2022/07/05 03:36:11;;;;;;;3.60;2.73;;;17.80;90.60;;;;;;7376920;19;21272;-80
2022/07/05 03:38:42;;;;;;;3.00;2.60;;;17.40;91.70;;;;;;7375293;19;20721;-80
2022/07/05 03:41:14;;;;;;;4.67;2.70;;;17.30;92.50;;;;;;7373908;19;20423;-80
2022/07/05 03:43:44;;;;;;;3.13;2.67;;;17.40;92.30;;;;;;7371112;19;20408;-79
2022/07/05 03:46:14;;;;;;;4.20;2.60;;;17.20;92.70;;;;;;7371947;19;20479;-79
2022/07/05 03:48:45;;;;;;;3.17;2.63;;;17.20;92.80;;;;;;7375818;19;20420;-79
2022/07/05 03:51:18;;;;;;;3.23;2.93;;;17.30;93.20;;;;;;7373384;19;20412;-81
2022/07/05 03:53:50;;;;;;;2.50;2.20;;;17.30;92.90;;;;;;7374077;19;20509;-80
2022/07/05 03:56:23;;;;;;;5.50;2.50;;;17.20;93.10;;;;;;7366484;19;20421;-80
2022/07/05 03:58:55;;;;;;;3.40;2.83;;;17.30;93.40;;;;;;7369400;19;20399;-80
2022/07/05 04:01:25;;;;;;;3.57;2.53;;;17.10;93.90;;;;;;7362097;19;20416;-81
2022/07/05 04:03:58;;;;;;;2.63;2.43;;;17.10;94.50;;;;;;7372235;19;21127;-80
2022/07/05 04:06:31;;;;;;;3.20;2.80;;;17.20;94.50;;;;;;7358150;19;21031;-80
2022/07/05 04:09:04;;;;;;;4.53;2.77;;;17.40;94.10;;;;;;7370139;19;20412;-80
2022/07/05 04:11:37;;;;;;;3.30;2.50;;;17.60;93.30;;;;;;7359661;19;20408;-79
2022/07/05 04:14:09;;;;;;;3.23;2.43;;;17.60;93.30;;;;;;7365606;19;20414;-80
2022/07/05 04:16:40;;;;;;;4.40;2.80;;;17.70;93.30;;;;;;7356531;19;20396;-80
2022/07/05 04:19:10;;;;;;;6.70;2.53;;;17.80;92.60;;;;;;7367017;19;21038;-80
2022/07/05 04:21:40;;;;;;;3.00;2.67;;;17.90;92.60;;;;;;7374194;19;20935;-79
2022/07/05 04:24:11;;;;;;;3.77;2.60;;;17.80;92.50;;;;;;7370565;19;20397;-79
2022/07/05 04:26:46;;;;;;;3.80;2.77;;;17.80;92.50;;;;;;7361398;19;20416;-80
2022/07/05 04:29:15;;;;;;;3.53;3.20;;;17.80;92.90;;;;;;7355678;19;20411;-80
2022/07/05 04:31:44;;;;;;;5.87;3.27;;;18.00;92.40;;;;;;7360979;19;20500;-80
2022/07/05 04:34:14;;;;;;;4.57;2.43;;;18.20;92.10;;;;;;7369668;19;20508;-80
2022/07/05 04:36:47;;;;;;;2.70;2.50;;;18.20;91.90;;;;;;7372025;19;20416;-81
2022/07/05 04:39:16;;;;;;;2.70;2.33;;;18.20;91.80;;;;;;7363286;19;20420;-81
2022/07/05 04:41:57;;;;;;;3.10;2.53;;;18.10;92.20;;;;;;7361919;19;20428;-81
2022/07/05 04:44:27;;;;;;;4.57;3.00;;;18.20;92.10;;;;;;7373740;19;20519;-81
2022/07/05 04:46:57;;;;;;;2.87;2.53;;;18.20;92.10;;;;;;7367355;19;20400;-81
2022/07/05 04:49:29;;;;;;;6.73;2.70;;;18.30;92.00;;;;;;7368958;19;20393;-81
2022/07/05 04:51:58;;;;;;;2.93;2.63;;;18.20;92.20;;;;;;7369902;19;20420;-81
2022/07/05 04:54:28;;;;;;;3.87;2.60;;;18.20;92.60;;;;;;7370557;19;21422;-81
2022/07/05 04:57:00;;;;;;;3.37;2.70;;;18.30;92.50;;;;;;7352512;19;20431;-81
2022/07/05 04:59:29;;;;;;;3.80;2.70;;;17.90;93.60;;;;;;7362920;19;20416;-81
2022/07/05 05:02:00;;;;;;;2.70;2.50;;;17.70;94.80;;;;;;7404601;19;20771;-80
2022/07/05 05:04:29;;;;;;;2.93;2.50;;;17.60;95.30;;;;;;7413353;19;20408;-81
2022/07/05 05:06:58;;;;;;;5.43;2.87;;;17.60;95.30;;;;;;7410334;19;20420;-80
2022/07/05 05:09:28;;;;;;;4.60;2.00;;;17.60;95.00;;;;;;7407555;19;20455;-81
2022/07/05 05:12:00;;;;;;;2.00;1.80;;;17.60;94.80;;;;;;7412056;19;20416;-81
2022/07/05 05:14:29;;;;;;;6.93;2.20;;;17.50;94.90;;;;;;7407236;19;20436;-80
2022/07/05 05:16:59;;;;;;;3.63;2.80;;;17.50;95.10;;;;;;7400724;19;20438;-79
2022/07/05 05:19:31;;;;;;;3.00;2.17;;;17.60;94.50;;;;;;7412382;19;20420;-85
2022/07/05 05:22:03;;;;;;;3.77;2.20;;;17.80;93.80;;;;;;7420076;19;20413;-84
2022/07/05 05:24:34;;;;;;;5.40;2.30;;;17.90;92.40;;;;;;7423201;19;20413;-83
2022/07/05 05:27:07;;;;;;;2.67;2.30;;;18.20;92.20;;;;;;7421049;19;20413;-84
2022/07/05 05:29:38;;;;;;;5.30;2.40;;;18.40;90.90;;;;;;7425093;19;20460;-84
2022/07/05 05:32:08;;;;;;;2.47;2.27;;;18.50;89.70;;;;;;7424022;19;20404;-84
2022/07/05 05:34:40;;;;;;;3.20;2.10;;;18.60;87.20;;;;;;7395908;19;20402;-84
2022/07/05 05:37:10;;;;;;;3.73;2.30;;;18.70;85.20;;;;;;7392632;19;20945;-90
2022/07/05 05:39:39;;;;;;;3.60;2.20;;;18.80;84.20;;;;;;7388327;19;20415;-83
2022/07/05 05:42:11;;;;;;;4.70;2.20;;;18.80;83.40;;;;;;7402448;19;20368;-84
2022/07/05 05:44:41;;;;;;;3.27;2.10;;;18.90;80.50;;;;;;7394434;19;20420;-83
2022/07/05 05:47:10;;;;;;;2.27;2.00;;;19.10;79.50;;;;;;7386497;19;20958;-84
2022/07/05 05:49:40;;;;;;;2.10;1.90;;;19.30;79.70;;;;;;7386880;19;20407;-84
2022/07/05 05:52:14;;;;;;;3.30;2.10;;;19.50;78.50;;;;;;7384369;19;20941;-84
2022/07/05 05:54:43;;;;;;;2.43;2.07;;;19.50;78.60;;;;;;7384875;19;21109;-82
2022/07/05 05:57:15;;;;;;;3.77;2.00;;;19.50;77.70;;;;;;7374396;19;20435;-82
2022/07/05 05:59:45;;;;;;;2.77;2.13;;;19.60;76.30;;;;;;7380652;19;20441;-83
2022/07/05 06:02:14;;;;;;;2.03;1.80;;;19.60;74.60;;;;;;7379398;19;20966;-84
2022/07/05 06:04:43;;;;;;;2.03;1.70;;;19.80;73.20;;;;;;7381856;19;20419;-84
2022/07/05 06:07:13;;;;;;;3.90;1.77;;;19.90;70.10;;;;;;7377982;19;20544;-83
2022/07/05 06:09:43;;;;;;;4.20;2.23;;;20.20;71.80;;;;;;7380924;19;21605;-84
2022/07/05 06:12:15;;;;;;;2.23;1.87;;;20.20;68.50;;;;;;7380381;19;20412;-83
2022/07/05 06:14:45;;;;;;;4.70;1.73;;;20.00;66.90;;;;;;7379727;19;20641;-83
2022/07/05 06:17:14;;;;;;;3.97;1.57;;;20.00;68.80;;;;;;7379233;19;20395;-83
2022/07/05 06:19:44;;;;;;;1.73;1.63;;;20.20;68.90;;;;;;7377539;19;20977;-83
2022/07/05 06:22:13;;;;;;;1.93;1.70;;;20.70;68.60;;;;;;7375906;19;20398;-83
2022/07/05 06:24:43;;;;;;;2.37;1.80;;;21.00;66.40;;;;;;7379655;19;20821;-83
2022/07/05 06:27:18;;;;;;;3.67;1.50;;;21.10;64.00;;;;;;7376865;19;21165;-83
2022/07/05 06:29:47;;;;;;;2.43;1.60;;;21.20;60.60;;;;;;7378605;19;20448;-83
2022/07/05 06:32:16;;;;;;;1.87;1.53;;;21.10;60.00;;;;;;7378711;19;20435;-81
2022/07/05 06:34:46;;;;;;;3.40;1.53;;;21.20;59.80;;;;;;7382723;19;20407;-84
2022/07/05 06:37:15;;;;;;;1.70;1.40;;;21.30;59.50;;;;;;7379569;19;20400;-83
2022/07/05 06:39:47;;;;;;;1.33;1.23;;;21.60;60.20;;;;;;7377969;19;20403;-84
2022/07/05 06:42:19;;;;;;;1.60;1.47;;;22.00;62.20;;;;;;7377522;19;20400;-83
2022/07/05 06:44:52;;;;;;;3.10;1.50;;;22.30;59.70;;;;;;7380401;19;20404;-83
2022/07/05 06:47:22;;;;;;;3.13;1.80;;;22.20;56.90;;;;;;7379974;19;21084;-83
2022/07/05 06:49:51;;;;;;;4.80;1.83;;;22.40;57.40;;;;;;7373773;19;20400;-83
2022/07/05 06:52:21;;;;;;;1.50;1.40;;;22.20;56.40;;;;;;7379012;19;20420;-84
2022/07/05 06:54:50;;;;;;;1.50;1.30;;;22.30;58.50;;;;;;7379814;19;20509;-83
2022/07/05 06:57:24;;;;;;;3.67;1.50;;;22.40;58.60;;;;;;7377097;19;20429;-83
2022/07/05 06:59:54;;;;;;;6.97;1.70;;;22.80;57.70;;;;;;7374216;19;20463;-83
2022/07/05 07:02:24;;;;;;;3.13;1.47;;;23.00;57.10;;;;;;7377876;19;20507;-84
2022/07/05 07:04:53;;;;;;;2.67;1.20;;;23.20;55.60;;;;;;7379031;19;20416;-83
2022/07/05 07:10:08;;;;;;;1.50;1.20;;;23.50;55.50;;;;;;7377207;19;21459;-84
2022/07/05 07:12:42;;;;;;;2.20;1.40;;;23.70;55.50;;;;;;7377006;19;21559;-84
2022/07/05 07:15:12;;;;;;;3.70;1.40;;;23.80;55.20;;;;;;7380746;19;20422;-84
2022/07/05 07:17:45;;;;;;;2.80;1.30;;;23.80;53.20;;;;;;7372031;19;20471;-85
2022/07/05 07:20:14;;;;;;;2.77;1.40;;;23.90;52.80;;;;;;7377811;19;20419;-83
2022/07/05 07:22:46;;;;;;;1.43;1.20;;;24.00;53.80;;;;;;7376940;19;20792;-82
2022/07/05 07:25:20;;;;;;;3.57;1.60;;;24.10;53.90;;;;;;7381942;19;20387;-84
2022/07/05 07:27:54;;;;;;;3.50;1.50;;;24.10;52.10;;;;;;7380257;19;20525;-82
2022/07/05 07:30:25;;;;;;;8.00;2.10;;;24.10;52.50;;;;;;7375381;19;20408;-82
2022/07/05 07:32:55;;;;;;;2.90;1.67;;;24.20;51.20;;;;;;7370487;19;20418;-83
2022/07/05 07:35:25;;;;;;;3.77;1.60;;;24.00;52.00;;;;;;7379140;19;21507;-84
2022/07/05 07:37:54;;;;;;;2.00;1.87;;;23.90;51.10;;;;;;7377866;19;20931;-84
2022/07/05 07:40:24;;;;;;;2.70;1.50;;;23.90;52.20;;;;;;7382227;19;21296;-83
2022/07/05 07:42:56;;;;;;;3.43;1.30;;;24.20;51.60;;;;;;7383132;19;20396;-83
2022/07/05 07:45:30;;;;;;;3.23;1.40;;;24.40;51.20;;;;;;7374275;19;20420;-84
2022/07/05 07:48:00;;;;;;;4.60;1.50;;;24.60;50.90;;;;;;7379166;19;20487;-84
2022/07/05 07:50:29;;;;;;;1.60;1.03;;;24.60;51.20;;;;;;7379551;19;20421;-84
2022/07/05 07:52:59;;;;;;;2.13;1.30;;;24.80;51.20;;;;;;7379095;19;20387;-83
2022/07/05 07:55:29;;;;;;;2.07;1.60;;;24.80;50.80;;;;;;7382512;19;20475;-84
2022/07/05 07:58:01;;;;;;;5.70;1.63;;;24.80;50.20;;;;;;7374303;19;20439;-84
2022/07/05 08:00:31;;;;;;;3.10;1.53;;;24.80;49.50;;;;;;7380487;19;21254;-85
2022/07/05 08:03:01;;;;;;;2.07;1.37;;;24.90;50.70;;;;;;7379639;19;20407;-84
2022/07/05 08:05:30;;;;;;;3.00;1.70;;;25.10;50.10;;;;;;7380204;19;20835;-83
2022/07/05 08:08:01;;;;;;;3.90;1.50;;;25.20;49.50;;;;;;7379004;19;20814;-83
2022/07/05 08:10:30;;;;;;;2.60;1.10;;;25.20;49.20;;;;;;7375002;19;20380;-83
2022/07/05 08:13:02;;;;;;;4.87;1.43;;;25.20;49.80;;;;;;7377066;19;20412;-84
2022/07/05 08:15:32;;;;;;;4.20;1.77;;;25.20;48.40;;;;;;7381946;19;20412;-84
2022/07/05 08:23:27;;;;;;;1.70;1.37;;;25.50;49.40;;;;;;7405643;19;20412;-83
2022/07/05 08:25:57;;;;;;;1.73;1.20;;;25.80;49.00;;;;;;7418169;19;20404;-84
2022/07/05 08:28:29;;;;;;;2.50;1.70;;;26.00;48.70;;;;;;7416869;19;20430;-84
2022/07/05 08:31:01;;;;;;;3.80;1.20;;;26.10;48.10;;;;;;7416873;19;20428;-84
2022/07/05 08:33:31;;;;;;;3.80;1.20;;;26.20;48.20;;;;;;7413196;19;20412;-85
2022/07/05 08:36:00;;;;;;;2.50;1.17;;;26.40;47.10;;;;;;7418095;19;20481;-84
2022/07/05 08:38:30;;;;;;;6.47;1.50;;;26.40;47.40;;;;;;7414115;19;20440;-85
2022/07/05 08:41:03;;;;;;;2.03;1.00;;;26.50;46.80;;;;;;7413693;19;20440;-84
2022/07/05 08:43:37;;;;;;;3.37;1.40;;;26.70;46.70;;;;;;7420394;19;20368;-85
2022/07/05 08:46:10;;;;;;;3.60;1.40;;;27.00;45.50;;;;;;7424485;19;20436;-85
2022/07/05 08:48:42;;;;;;;1.53;1.23;;;27.10;44.00;;;;;;7426535;19;20408;-85
2022/07/05 08:51:16;;;;;;;3.03;1.10;;;27.20;43.80;;;;;;7427677;19;20418;-83
2022/07/05 08:53:46;;;;;;;1.90;0.93;;;27.20;45.10;;;;;;7428031;19;20409;-85
2022/07/05 08:56:19;;;;;;;1.83;1.00;;;27.30;45.00;;;;;;7428980;19;20388;-86
2022/07/05 08:58:51;;;;;;;0.93;0.77;;;27.40;44.80;;;;;;7393634;19;21040;-86
2022/07/05 09:01:24;;;;;;;2.73;1.10;;;27.50;44.50;;;;;;7388955;19;20407;-84
2022/07/05 09:03:55;;;;;;;3.30;1.30;;;27.50;44.80;;;;;;7385182;19;20443;-83
2022/07/05 09:06:27;;;;;;;1.20;1.10;;;27.80;43.90;;;;;;7384065;19;20465;-82
2022/07/05 09:08:58;;;;;;;5.40;1.40;;;28.00;43.10;;;;;;7381292;19;20431;-83
2022/07/05 09:11:37;;;;;;;1.77;1.00;;;28.30;42.70;;;;;;7378852;19;20415;-84
2022/07/05 09:14:21;;;;;;;2.47;1.00;;;28.50;42.30;;;;;;7375149;19;20415;-84
2022/07/05 09:16:55;;;;;;;1.33;1.00;;;28.90;41.30;;;;;;7375672;19;20425;-83
2022/07/05 09:19:24;;;;;;;1.20;1.10;;;28.90;41.60;;;;;;7378621;19;20384;-83
2022/07/05 09:22:05;;;;;;;1.50;1.00;;;29.00;40.60;;;;;;7376531;19;20426;-83
2022/07/05 09:24:34;;;;;;;4.83;1.00;;;29.30;40.10;;;;;;7376302;19;20979;-83
2022/07/05 09:27:08;;;;;;;2.60;1.30;;;29.60;40.50;;;;;;7373782;19;20412;-84
2022/07/05 09:29:55;;;;;;;1.80;1.30;;;29.90;39.90;;;;;;7375101;19;20445;-83
2022/07/05 09:32:30;;;;;;;2.40;0.90;;;30.00;39.00;;;;;;7377742;19;20817;-84
2022/07/05 09:35:23;;;;;;;2.93;1.87;;;30.10;39.40;;;;;;7373742;19;20442;-84
2022/07/05 09:37:52;;;;;;;1.70;1.27;;;30.40;38.20;;;;;;7373711;19;20405;-84
2022/07/05 09:40:22;;;;;;;1.53;1.13;;;30.60;37.80;;;;;;7372951;19;20408;-83
2022/07/05 09:42:51;;;;;;;4.07;1.53;;;30.90;37.90;;;;;;7376813;19;20431;-84
2022/07/05 09:45:29;;;;;;;2.03;1.00;;;30.90;37.80;;;;;;7373290;19;20949;-84
2022/07/05 09:47:59;;;;;;;2.30;1.40;;;31.30;36.90;;;;;;7377344;19;20507;-84
2022/07/05 09:50:36;;;;;;;2.70;1.20;;;31.60;36.70;;;;;;7374285;19;20420;-84
2022/07/05 09:53:06;;;;;;;1.60;0.97;;;31.80;36.00;;;;;;7377617;19;20408;-84
2022/07/05 09:55:38;;;;;;;2.43;1.47;;;32.00;34.90;;;;;;7373940;19;20415;-83
2022/07/05 09:58:10;;;;;;;1.27;1.10;;;32.50;35.00;;;;;;7364176;19;20453;-85
2022/07/05 10:00:42;;;;;;;1.20;0.90;;;32.90;34.50;;;;;;7373309;19;21451;-85
2022/07/05 10:03:12;;;;;;;1.73;1.10;;;33.30;34.10;;;;;;7373788;19;20951;-83
2022/07/05 10:05:41;;;;;;;5.77;3.73;;;33.40;33.40;;;;;;7371433;19;20397;-84
2022/07/05 10:08:12;;;;;;;1.33;0.80;;;33.10;31.80;;;;;;7375967;19;21356;-83
2022/07/05 10:10:45;;;;;;;2.97;1.80;;;32.50;32.80;;;;;;7372886;19;20423;-83
2022/07/05 10:13:17;;;;;;;3.00;1.10;;;32.50;31.10;;;;;;7374915;19;20403;-84
2022/07/05 10:15:49;;;;;;;2.10;1.20;;;33.00;31.30;;;;;;7373314;19;20391;-83
2022/07/05 10:18:31;;;;;;;1.87;1.00;;;33.00;31.00;;;;;;7372662;19;20513;-84
2022/07/05 10:21:04;;;;;;;2.10;1.30;;;33.50;30.30;;;;;;7371398;19;20876;-84
2022/07/05 10:23:34;;;;;;;2.57;1.23;;;34.00;30.90;;;;;;7374812;19;20983;-85
2022/07/05 10:26:04;;;;;;;3.20;1.37;;;34.20;30.50;;;;;;7378119;19;21119;-85
2022/07/05 10:28:34;;;;;;;1.97;1.17;;;34.30;30.50;;;;;;7378449;19;20943;-84
2022/07/05 10:31:08;;;;;;;2.67;1.37;;;34.50;30.00;;;;;;7383046;19;20415;-85
2022/07/05 10:33:38;;;;;;;1.47;1.10;;;34.90;29.20;;;;;;7379772;19;20446;-85
2022/07/05 10:36:13;;;;;;;1.30;1.20;;;35.30;29.40;;;;;;7376065;19;20404;-84
2022/07/05 10:38:46;;;;;;;1.37;1.00;;;35.60;29.10;;;;;;7376780;19;20380;-83
2022/07/05 10:41:25;;;;;;;1.77;1.10;;;35.80;28.50;;;;;;7378746;19;20432;-84
2022/07/05 10:43:57;;;;;;;1.27;1.00;;;35.90;28.30;;;;;;7378880;19;20468;-84
2022/07/05 10:46:41;;;;;;;1.50;1.00;;;34.60;29.40;;;;;;7376664;19;20411;-84
2022/07/05 10:49:17;;;;;;;1.60;0.90;;;33.90;29.80;;;;;;7380421;19;20416;-84
2022/07/05 10:51:49;;;;;;;2.27;0.90;;;32.90;31.00;;;;;;7381888;19;20437;-84
2022/07/05 10:54:19;;;;;;;1.63;1.00;;;32.30;32.20;;;;;;7379786;19;20408;-84
2022/07/05 10:57:20;;;;;;;1.77;0.97;;;32.40;31.20;;;;;;7377523;19;20416;-84
2022/07/05 11:00:08;;;;;;;1.57;1.00;;;33.00;30.20;;;;;;7373818;19;20484;-85
2022/07/05 11:02:41;;;;;;;3.03;0.90;;;33.90;29.70;;;;;;7378274;19;20416;-84
2022/07/05 11:05:10;;;;;;;1.20;0.90;;;34.70;29.40;;;;;;7377439;19;20423;-84
2022/07/05 11:08:02;;;;;;;1.13;0.87;;;35.10;28.10;;;;;;7377392;19;20372;-85
2022/07/05 11:10:35;;;;;;;1.60;0.90;;;34.80;28.70;;;;;;7378123;19;20421;-85
2022/07/05 11:13:39;;;;;;;2.70;0.70;;;35.20;28.30;;;;;;7382061;19;20405;-84
2022/07/05 11:16:24;;;;;;;1.93;1.07;;;35.60;28.10;;;;;;7380083;19;20416;-84
2022/07/05 11:19:12;;;;;;;1.60;1.30;;;35.50;27.30;;;;;;7377050;19;20423;-84
2022/07/05 11:22:03;;;;;;;2.10;1.10;;;35.40;27.40;;;;;;7376924;19;21099;-84
2022/07/05 11:24:34;;;;;;;2.40;1.20;;;35.30;28.00;;;;;;7366828;19;20773;-84
2022/07/05 11:27:06;;;;;;;1.73;1.20;;;35.30;28.40;;;;;;7374539;19;20520;-84
2022/07/05 11:29:44;;;;;;;2.30;1.10;;;35.30;27.40;;;;;;7376808;19;20404;-83
2022/07/05 11:32:15;;;;;;;2.40;1.27;;;34.80;28.80;;;;;;7371705;19;20416;-82
2022/07/05 11:34:51;;;;;;;2.97;1.10;;;33.50;29.20;;;;;;7370394;19;21084;-84
2022/07/05 11:37:23;;;;;;;1.73;0.90;;;32.80;30.10;;;;;;7362775;19;20404;-81
2022/07/05 11:40:33;;;;;;;2.77;1.07;;;32.70;31.10;;;;;;7371016;19;21360;-82
2022/07/05 11:43:03;;;;;;;2.60;1.27;;;32.80;31.00;;;;;;7371137;19;20446;-81
2022/07/05 11:45:33;;;;;;;1.03;0.80;;;33.30;31.20;;;;;;7371804;19;20500;-83
2022/07/05 11:48:17;;;;;;;6.20;1.03;;;34.10;30.20;;;;;;7378342;19;20382;-83
2022/07/05 11:50:50;;;;;;;2.20;1.23;;;34.20;29.30;;;;;;7370670;19;20368;-83
2022/07/05 11:53:28;;;;;;;2.70;1.20;;;34.70;29.50;;;;;;7376253;19;21212;-83
2022/07/05 11:56:01;;;;;;;2.10;1.03;;;35.20;28.90;;;;;;7413562;19;20416;-84
2022/07/05 11:58:34;;;;;;;1.70;1.20;;;35.10;28.90;;;;;;7413552;19;20452;-83
2022/07/05 12:01:05;;;;;;;2.97;1.03;;;35.40;28.20;;;;;;7411533;19;20453;-84
2022/07/05 12:03:39;;;;;;;2.40;1.00;;;35.30;28.20;;;;;;7414661;19;20420;-83
2022/07/05 12:06:18;;;;;;;3.10;1.20;;;35.50;28.30;;;;;;7406452;19;20453;-84
2022/07/05 12:08:47;;;;;;;2.67;0.90;;;35.10;27.90;;;;;;7411416;19;20451;-83
2022/07/05 12:14:01;;;;;;;1.30;1.20;;;35.30;28.60;;;;;;7414354;19;20465;-84
2022/07/05 12:16:30;;;;;;;2.43;1.20;;;35.50;28.40;;;;;;7403814;19;20412;-83
2022/07/05 12:19:04;;;;;;;2.70;1.27;;;35.70;28.40;;;;;;7412171;19;20403;-83
2022/07/05 12:21:36;;;;;;;4.10;1.70;;;35.90;28.40;;;;;;7418665;19;20417;-83
2022/07/05 12:24:08;;;;;;;3.80;1.30;;;35.90;28.00;;;;;;7425096;19;20396;-84
2022/07/05 12:26:40;;;;;;;2.50;0.90;;;35.10;28.20;;;;;;7424838;19;20403;-83
2022/07/05 12:29:10;;;;;;;1.83;0.87;;;35.20;29.00;;;;;;7422716;19;20393;-84
2022/07/05 12:31:40;;;;;;;2.70;1.00;;;35.50;28.30;;;;;;7423813;19;20412;-83
2022/07/05 12:34:21;;;;;;;2.30;1.23;;;35.00;28.80;;;;;;7410182;19;20382;-82
2022/07/05 12:36:53;;;;;;;1.60;0.90;;;35.30;29.00;;;;;;7389584;19;20407;-82
2022/07/05 12:39:23;;;;;;;2.33;1.03;;;35.60;28.50;;;;;;7387347;19;20507;-82
2022/07/05 12:41:53;;;;;;;1.50;0.93;;;35.90;28.60;;;;;;7385312;19;20426;-82
2022/07/05 12:44:23;;;;;;;2.37;1.40;;;35.90;28.10;;;;;;7381869;19;20874;-82
2022/07/05 12:46:53;;;;;;;1.90;1.17;;;35.70;28.50;;;;;;7383186;19;20440;-81
2022/07/05 12:49:23;;;;;;;1.53;1.33;;;35.60;28.60;;;;;;7371721;19;20415;-82
2022/07/05 12:51:55;;;;;;;2.77;1.20;;;35.20;29.10;;;;;;7378355;19;20855;-80
2022/07/05 13:00:04;;;;;;;2.17;1.00;;;34.30;29.60;;;;;;7375046;19;20539;-82
2022/07/05 13:02:38;;;;;;;3.17;1.00;;;33.90;29.70;;;;;;7371466;19;20423;-82
2022/07/05 13:05:09;;;;;;;1.87;1.20;;;33.60;31.50;;;;;;7374540;19;20404;-81
2022/07/05 13:07:48;;;;;;;2.50;1.30;;;33.10;31.50;;;;;;7373337;19;21166;-80
2022/07/05 13:10:19;;;;;;;2.00;1.50;;;32.50;32.30;;;;;;7375361;19;20451;-83
2022/07/05 13:12:51;;;;;;;2.80;1.30;;;32.10;32.50;;;;;;7372223;19;20768;-83
2022/07/05 13:15:21;;;;;;;1.80;1.03;;;31.90;32.20;;;;;;7372963;19;20495;-83
2022/07/05 13:17:53;;;;;;;1.67;1.10;;;31.70;32.80;;;;;;7341589;19;20439;-82
2022/07/05 13:20:22;;;;;;;1.70;1.33;;;31.20;34.70;;;;;;7370073;19;20431;-81
2022/07/05 13:22:54;;;;;;;4.93;1.67;;;31.10;34.50;;;;;;7366084;19;20768;-80
2022/07/05 13:25:24;;;;;;;3.40;1.40;;;30.90;35.20;;;;;;7376061;19;20396;-83
2022/07/05 13:27:55;;;;;;;2.63;1.37;;;30.70;34.70;;;;;;7374845;19;20403;-83
2022/07/05 13:30:28;;;;;;;1.80;1.00;;;30.60;34.80;;;;;;7370347;19;20430;-81